Vera, Texas
Current Conditions -  °F | °C
As of 10:56 AM on Thursday 23 Oct 2014 (Local Time) from KF05 Reporting Station
Clear Clear  
Wind Chill: 70°   Ceiling: Unl
Heat Index: 70°   Visibility: 10mi
Dew Point: 63°   Wind: 5mph
Humidity: 78%   Direction: 190°S
Pressure: 30.14"   Gusts: NA
Location:  33.6337°N, 99.8039°W
Report Text: KF05 231556Z AUTO 19004KT 10SM CLR 21/17 A3014 RMK AO2
Loading
Personal Weather Stations






























Interactive Weather Map New forecast layout! Learn more

10-Day Weather Forecast

Advertisements
Track Severe Weather on mobile